Terminal Aerodrome Forecast
Issued by NWS

Home | Current Version | Previous Version | Text Only | Print | Product List | Glossary On
Versions: 1 2 3 4 5 6 7 8 9 10 11 12 13 14 15 16 17 18 19 20 21 22 23 24 25 26 27 28 29 30 31 32 33 34 35 36 37 38
842
FTUS42 KCAE 242225 AAC
TAFCUB
TAF AMD
KCUB 242225Z 2422/2518 18012KT P6SM -SHRA SCT030 BKN060 OVC100
      TEMPO 2423/2502 VRB15G25KT 1SM +TSRA BR SCT007 BKN015CB OVC040
     FM250300 22008KT P6SM BKN040
     FM251500 24012G21KT P6SM SCT030 BKN050=

USA.gov is the U.S. government's official web portal to all federal, state and local government web resources and services.